Time;durP1;ratioP1;P1;durP2;ratioP2;P2;SDS_P1;SDS_P2;PMS_P1;PMS_P2;Temp;Humidity;BMP_temperature;BMP_pressure;BME280_temperature;BME280_humidity;BME280_pressure;Samples;Min_cycle;Max_cycle;Signal;HPM_P1;HPM_P2
2021/06/29 00:01:18;;;;;;;10.68;6.15;;;;;;;18.73;51.68;101151.19;5006884;28;20410;-69
2021/06/29 00:03:43;;;;;;;9.43;6.22;;;;;;;18.78;51.78;101149.06;5039731;28;20256;-68
2021/06/29 00:06:09;;;;;;;13.65;7.38;;;;;;;18.82;51.32;101142.59;5013950;28;20494;-69
2021/06/29 00:08:34;;;;;;;12.93;7.88;;;;;;;18.81;51.73;101142.69;5006511;28;20037;-68
2021/06/29 00:11:00;;;;;;;13.85;7.22;;;;;;;18.80;51.73;101136.56;5040382;28;20644;-68
2021/06/29 00:13:25;;;;;;;12.27;6.10;;;;;;;18.88;51.44;101141.34;5040285;28;20037;-68
2021/06/29 00:15:51;;;;;;;13.63;7.40;;;;;;;18.89;51.47;101135.94;5007106;28;20071;-69
2021/06/29 00:18:16;;;;;;;13.23;8.65;;;;;;;18.82;51.40;101149.69;5040490;28;20033;-68
2021/06/29 00:20:42;;;;;;;14.80;6.70;;;;;;;18.70;51.64;101143.47;5006800;28;20068;-69
2021/06/29 00:23:08;;;;;;;12.07;7.05;;;;;;;18.74;51.67;101130.84;5022521;28;20049;-69
2021/06/29 00:25:33;;;;;;;14.82;9.50;;;;;;;18.65;51.48;101133.22;5039282;28;20579;-68
2021/06/29 00:27:59;;;;;;;10.70;6.50;;;;;;;18.74;51.49;101136.97;5022846;28;20320;-69
2021/06/29 00:30:25;;;;;;;14.93;9.30;;;;;;;18.74;51.36;101136.97;5039068;28;20154;-69
2021/06/29 00:32:51;;;;;;;15.52;8.27;;;;;;;18.64;51.69;101136.78;5039122;28;20112;-69
2021/06/29 00:35:17;;;;;;;15.77;9.05;;;;;;;18.55;52.06;101133.97;5040169;28;20036;-70
2021/06/29 00:37:43;;;;;;;16.25;9.57;;;;;;;18.43;52.44;101128.56;5040580;28;20048;-69
2021/06/29 00:40:10;;;;;;;11.65;8.43;;;;;;;18.44;52.46;101126.75;5038397;28;20040;-69
2021/06/29 00:42:36;;;;;;;19.00;8.20;;;;;;;18.50;52.35;101136.06;5023015;28;20040;-69
2021/06/29 00:45:04;;;;;;;12.75;8.30;;;;;;;18.54;52.50;101129.59;5013068;28;20097;-69
2021/06/29 00:47:30;;;;;;;14.90;8.43;;;;;;;18.43;52.63;101117.97;5026223;28;20037;-69
2021/06/29 00:49:56;;;;;;;17.38;8.80;;;;;;;18.41;52.84;101119.88;5045017;28;20410;-69
2021/06/29 00:52:22;;;;;;;14.85;8.65;;;;;;;18.38;52.74;101116.59;5042783;28;20479;-69
2021/06/29 00:54:49;;;;;;;16.35;8.95;;;;;;;18.40;52.67;101123.47;5044974;28;20478;-69
2021/06/29 00:57:15;;;;;;;13.13;8.32;;;;;;;18.39;52.79;101120.94;5026565;28;20032;-69
2021/06/29 00:59:41;;;;;;;13.07;7.90;;;;;;;18.44;52.49;101117.00;5026254;28;20060;-68
2021/06/29 01:02:09;;;;;;;11.52;7.05;;;;;;;18.54;52.18;101125.19;5042455;28;20033;-70
2021/06/29 01:04:37;;;;;;;13.55;7.75;;;;;;;18.55;51.99;101124.22;5010876;28;20564;-69
2021/06/29 01:07:04;;;;;;;16.23;9.43;;;;;;;18.41;52.34;101127.81;5024131;28;20029;-69
2021/06/29 01:09:31;;;;;;;17.55;8.65;;;;;;;18.27;52.85;101122.63;5017214;28;20529;-69
2021/06/29 01:11:56;;;;;;;11.40;9.05;;;;;;;18.22;52.82;101124.75;5019475;28;20090;-70
2021/06/29 01:14:22;;;;;;;13.50;7.97;;;;;;;18.24;52.96;101128.13;5043757;28;20444;-68
2021/06/29 01:16:47;;;;;;;15.75;9.00;;;;;;;18.31;52.90;101129.41;5025871;28;20498;-69
2021/06/29 01:19:21;;;;;;;15.35;8.60;;;;;;;18.34;52.88;101123.91;5043955;28;20496;-68
2021/06/29 01:21:51;;;;;;;14.70;9.02;;;;;;;18.08;53.12;101125.66;5041897;28;20321;-69
2021/06/29 01:24:31;;;;;;;13.98;9.25;;;;;;;18.42;52.49;101126.84;5036032;28;20029;-68
2021/06/29 01:29:47;;;;;;;14.82;9.68;;;;;;;18.27;52.72;101109.41;5043484;28;20036;-69
2021/06/29 01:32:14;;;;;;;16.00;8.77;;;;;;;18.40;52.57;101117.34;5000948;28;20037;-70
2021/06/29 01:34:40;;;;;;;14.32;7.82;;;;;;;18.54;52.15;101119.00;5044889;28;20033;-69
2021/06/29 01:37:05;;;;;;;10.52;8.27;;;;;;;18.54;52.37;101119.00;5043125;28;20484;-69
2021/06/29 01:39:31;;;;;;;16.35;9.32;;;;;;;18.48;52.12;101110.56;5044349;28;20052;-68
2021/06/29 01:41:56;;;;;;;11.52;8.73;;;;;;;18.41;52.25;101103.16;5033854;28;20045;-69
2021/06/29 01:44:26;;;;;;;12.77;8.80;;;;;;;18.39;52.49;101103.25;5026068;28;20039;-69
2021/06/29 01:46:54;;;;;;;12.40;9.23;;;;;;;18.41;52.66;101108.47;5020551;28;20037;-69
2021/06/29 01:49:26;;;;;;;14.00;10.38;;;;;;;18.32;52.60;101112.59;5025893;28;20025;-69
2021/06/29 01:51:53;;;;;;;11.23;9.60;;;;;;;18.29;52.84;101104.84;5017019;28;20029;-69
2021/06/29 01:54:20;;;;;;;12.05;9.15;;;;;;;18.31;53.07;101107.41;5046399;23;20036;-67
2021/06/29 01:56:46;;;;;;;14.77;9.88;;;;;;;18.24;53.22;101102.53;5061463;28;20098;-69
2021/06/29 01:59:14;;;;;;;14.82;9.70;;;;;;;18.17;53.20;101103.03;5062017;28;20131;-68
2021/06/29 02:01:40;;;;;;;13.85;9.45;;;;;;;18.16;53.17;101099.53;5059212;28;20553;-69
2021/06/29 02:04:06;;;;;;;18.85;9.45;;;;;;;18.33;53.10;101092.25;5063842;28;20040;-68
2021/06/29 02:06:32;;;;;;;12.93;9.10;;;;;;;18.41;52.48;101098.72;5064780;28;20170;-67
2021/06/29 02:08:57;;;;;;;20.55;10.55;;;;;;;18.27;52.52;101096.16;5063587;28;20037;-68
2021/06/29 02:11:23;;;;;;;19.15;10.88;;;;;;;18.16;53.14;101096.91;5064949;28;20071;-69
2021/06/29 02:13:48;;;;;;;17.98;11.05;;;;;;;18.10;53.27;101096.47;5062362;28;20037;-67
2021/06/29 02:16:14;;;;;;;13.95;8.27;;;;;;;18.10;53.73;101101.75;5064917;28;20405;-68
2021/06/29 02:18:40;;;;;;;13.40;9.52;;;;;;;18.23;52.94;101097.34;5064644;28;20036;-68
2021/06/29 02:21:06;;;;;;;13.32;9.00;;;;;;;18.26;52.63;101086.56;5064203;28;20041;-67
2021/06/29 02:23:32;;;;;;;12.52;9.00;;;;;;;18.28;52.79;101087.28;5064650;28;20036;-67
2021/06/29 02:25:58;;;;;;;13.90;10.60;;;;;;;18.17;52.91;101084.50;5063543;28;20431;-68
2021/06/29 02:28:23;;;;;;;18.70;10.57;;;;;;;18.05;53.23;101089.69;5062894;28;20111;-68
2021/06/29 02:30:49;;;;;;;15.95;11.18;;;;;;;18.01;53.70;101090.84;5046180;28;20189;-68
2021/06/29 02:33:14;;;;;;;17.15;12.82;;;;;;;18.04;53.78;101089.78;5063055;28;20033;-68
2021/06/29 02:35:40;;;;;;;22.67;12.30;;;;;;;18.10;53.78;101085.91;5064576;28;20032;-68
2021/06/29 02:38:06;;;;;;;17.50;11.13;;;;;;;18.21;53.80;101078.09;5062669;28;20028;-68
2021/06/29 02:40:32;;;;;;;18.38;12.40;;;;;;;18.34;53.18;101083.34;5064760;28;20559;-67
2021/06/29 02:42:59;;;;;;;20.08;11.77;;;;;;;18.34;53.43;101078.06;5061744;28;20064;-68
2021/06/29 02:45:25;;;;;;;15.73;10.98;;;;;;;18.33;53.64;101079.88;5064515;28;20494;-69
2021/06/29 02:47:51;;;;;;;17.55;11.70;;;;;;;18.35;53.65;101067.38;5063342;28;20032;-67
2021/06/29 02:50:17;;;;;;;14.27;11.10;;;;;;;18.46;53.54;101064.81;5063949;28;20063;-67
2021/06/29 02:52:43;;;;;;;15.55;10.85;;;;;;;18.58;53.50;101062.25;5064822;28;20401;-68
2021/06/29 02:55:11;;;;;;;16.25;10.95;;;;;;;18.68;53.40;101058.84;5071625;28;20032;-68
2021/06/29 02:57:37;;;;;;;20.55;13.25;;;;;;;18.75;52.90;101064.56;5063370;28;20419;-69
2021/06/29 03:00:08;;;;;;;21.30;15.27;;;;;;;18.74;53.14;101059.38;5043910;28;20037;-68
2021/06/29 03:02:34;;;;;;;22.65;14.40;;;;;;;18.85;52.99;101059.44;5063497;28;20195;-68
2021/06/29 03:05:00;;;;;;;22.75;15.45;;;;;;;18.86;52.98;101061.97;5063647;28;20037;-68
2021/06/29 03:07:25;;;;;;;17.52;12.32;;;;;;;18.89;53.16;101061.78;5065256;28;20061;-67
2021/06/29 03:09:51;;;;;;;20.25;13.30;;;;;;;18.97;52.94;101065.69;5063573;28;20033;-67
2021/06/29 03:12:16;;;;;;;23.50;14.75;;;;;;;18.97;52.81;101068.34;5063620;28;20037;-68
2021/06/29 03:14:42;;;;;;;24.30;14.90;;;;;;;18.84;53.38;101069.19;5062490;28;20033;-67
2021/06/29 03:17:08;;;;;;;26.55;16.55;;;;;;;18.90;53.28;101081.19;5061729;28;20117;-68
2021/06/29 03:19:35;;;;;;;18.25;12.88;;;;;;;18.96;53.11;101072.78;5064943;28;20478;-67
2021/06/29 03:22:01;;;;;;;27.55;16.73;;;;;;;18.86;52.98;101069.94;5063190;28;20037;-68
2021/06/29 03:24:28;;;;;;;23.73;14.43;;;;;;;18.87;53.12;101071.63;5062515;28;20105;-68
2021/06/29 03:26:54;;;;;;;23.17;15.05;;;;;;;18.88;53.10;101061.91;5045422;28;20119;-68
2021/06/29 03:29:19;;;;;;;17.05;13.85;;;;;;;18.89;53.28;101067.06;5045336;28;20119;-68
2021/06/29 03:31:45;;;;;;;28.90;16.83;;;;;;;18.93;53.08;101067.72;5046056;28;20562;-68
2021/06/29 03:34:10;;;;;;;21.50;14.38;;;;;;;18.92;53.32;101067.81;5054290;28;20029;-68
2021/06/29 03:36:36;;;;;;;20.20;14.82;;;;;;;18.88;53.48;101062.75;5062901;28;20401;-68
2021/06/29 03:39:03;;;;;;;22.23;16.20;;;;;;;18.96;52.87;101066.63;5044984;28;20032;-68
2021/06/29 03:41:29;;;;;;;22.15;14.10;;;;;;;18.98;53.35;101070.03;5063048;28;20040;-67
2021/06/29 03:43:54;;;;;;;25.85;16.27;;;;;;;18.94;53.28;101065.91;5062482;28;20039;-68
2021/06/29 03:46:20;;;;;;;20.48;16.05;;;;;;;19.02;53.32;101076.78;5056062;28;20028;-68
2021/06/29 03:48:46;;;;;;;21.30;14.82;;;;;;;18.91;53.46;101079.38;5045783;28;20093;-68
2021/06/29 03:51:11;;;;;;;18.10;13.27;;;;;;;18.99;53.43;101072.56;5063172;28;20034;-68
2021/06/29 03:53:37;;;;;;;25.05;16.08;;;;;;;18.99;53.10;101071.69;5063542;28;20032;-67
2021/06/29 03:56:03;;;;;;;20.92;15.15;;;;;;;19.08;53.47;101073.72;5063414;28;20350;-68
2021/06/29 03:58:28;;;;;;;18.85;14.85;;;;;;;19.14;53.14;101069.75;5062337;28;20044;-69
2021/06/29 04:00:54;;;;;;;26.73;16.50;;;;;;;18.95;53.21;101068.44;5061013;28;20083;-67
2021/06/29 04:03:19;;;;;;;23.70;16.42;;;;;;;18.97;53.55;101071.00;5060259;28;20068;-67
2021/06/29 04:05:45;;;;;;;27.13;18.40;;;;;;;18.98;52.94;101065.56;5063022;28;20046;-67
2021/06/29 04:08:10;;;;;;;40.03;20.42;;;;;;;18.81;53.42;101063.25;5047125;28;20024;-69
2021/06/29 04:10:36;;;;;;;30.13;16.98;;;;;;;18.84;53.71;101065.69;5057955;28;20149;-68
2021/06/29 04:13:02;;;;;;;28.42;19.33;;;;;;;18.95;53.65;101064.97;5060814;28;20032;-68
2021/06/29 04:15:27;;;;;;;26.35;17.48;;;;;;;18.88;53.57;101062.75;5061308;28;20046;-67
2021/06/29 04:17:53;;;;;;;27.83;18.92;;;;;;;18.95;53.51;101075.56;5046208;28;20032;-68
2021/06/29 04:20:18;;;;;;;31.08;18.48;;;;;;;19.00;53.16;101060.16;5044894;28;20056;-68
2021/06/29 04:22:44;;;;;;;35.75;20.42;;;;;;;18.80;53.47;101050.97;5067391;28;20147;-69
2021/06/29 04:25:10;;;;;;;29.27;18.73;;;;;;;18.96;52.99;101067.47;5065970;28;20043;-68
2021/06/29 04:27:36;;;;;;;25.80;17.25;;;;;;;19.07;53.05;101056.09;5066733;28;20123;-68
2021/06/29 04:30:04;;;;;;;32.38;19.40;;;;;;;19.16;52.38;101063.38;5063652;28;20108;-67
2021/06/29 04:32:30;;;;;;;29.58;17.05;;;;;;;19.11;52.79;101054.94;5063487;28;20037;-68
2021/06/29 04:34:56;;;;;;;31.83;18.88;;;;;;;19.10;52.41;101066.50;5066959;28;20037;-68
2021/06/29 04:37:21;;;;;;;29.92;18.65;;;;;;;18.97;52.53;101057.75;5065039;28;20032;-68
2021/06/29 04:39:47;;;;;;;36.95;21.02;;;;;;;19.11;52.45;101062.88;5067350;28;20046;-68
2021/06/29 04:42:12;;;;;;;34.55;20.08;;;;;;;19.09;52.52;101056.84;5048605;28;20040;-68
2021/06/29 04:44:39;;;;;;;35.97;20.30;;;;;;;19.14;52.49;101062.63;5067847;28;20040;-69
2021/06/29 04:47:09;;;;;;;26.30;18.65;;;;;;;18.85;52.77;101054.13;5050008;28;20413;-68
2021/06/29 04:49:35;;;;;;;28.73;17.42;;;;;;;19.10;52.34;101061.19;5061462;28;20064;-68
2021/06/29 04:52:01;;;;;;;35.05;20.02;;;;;;;19.13;52.08;101058.31;5048144;28;20086;-68
2021/06/29 04:54:26;;;;;;;33.55;19.17;;;;;;;19.08;52.49;101058.66;5064482;28;20037;-68
2021/06/29 04:56:52;;;;;;;31.55;17.73;;;;;;;19.23;52.28;101054.03;5064399;28;20127;-68
2021/06/29 04:59:17;;;;;;;30.70;17.60;;;;;;;19.36;52.24;101053.09;5066065;28;20675;-68
2021/06/29 05:01:43;;;;;;;35.00;19.25;;;;;;;19.38;51.74;101056.50;5066641;28;20139;-69
2021/06/29 05:04:08;;;;;;;38.88;20.05;;;;;;;19.39;51.35;101052.88;5062737;28;20040;-68
2021/06/29 05:06:34;;;;;;;34.95;21.48;;;;;;;19.23;51.64;101056.69;5065713;28;20105;-69
2021/06/29 05:08:59;;;;;;;37.42;22.25;;;;;;;18.99;52.73;101056.69;5066226;28;20029;-68
2021/06/29 05:11:25;;;;;;;37.00;20.98;;;;;;;19.16;52.49;101065.19;5069332;28;20410;-68
2021/06/29 05:13:50;;;;;;;35.13;20.40;;;;;;;18.86;52.89;101066.44;5064283;28;20064;-68
2021/06/29 05:16:16;;;;;;;42.85;20.98;;;;;;;18.87;52.98;101071.63;5065925;28;20424;-68
2021/06/29 05:18:41;;;;;;;33.72;20.33;;;;;;;18.62;53.64;101080.47;5066958;28;20039;-68
2021/06/29 05:21:07;;;;;;;40.22;22.45;;;;;;;18.84;53.12;101079.78;5062996;28;20032;-68
2021/06/29 05:23:33;;;;;;;38.45;21.33;;;;;;;18.47;54.33;101074.47;5065790;28;20082;-67
2021/06/29 05:25:58;;;;;;;39.17;22.38;;;;;;;18.88;53.66;101086.59;5063993;28;20462;-68
2021/06/29 05:28:24;;;;;;;44.72;21.70;;;;;;;18.93;53.10;101082.75;5065016;28;20095;-67
2021/06/29 05:30:50;;;;;;;41.75;22.25;;;;;;;19.08;53.10;101092.25;5063715;28;20104;-68
2021/06/29 05:33:18;;;;;;;47.05;23.30;;;;;;;19.16;52.81;101095.16;5062805;28;20027;-68
2021/06/29 05:35:44;;;;;;;40.03;22.95;;;;;;;19.11;52.73;101096.47;5064420;28;20040;-68
2021/06/29 05:38:11;;;;;;;38.88;21.40;;;;;;;19.27;53.05;101094.38;5066110;28;20036;-68
2021/06/29 05:40:37;;;;;;;40.20;23.10;;;;;;;19.41;52.65;101101.31;5064233;28;20127;-68
2021/06/29 05:43:02;;;;;;;43.85;21.88;;;;;;;18.89;53.50;101093.56;5064033;28;20046;-69
2021/06/29 05:45:28;;;;;;;33.97;19.00;;;;;;;19.31;53.32;101098.50;5066459;28;20473;-68
2021/06/29 05:47:55;;;;;;;39.75;23.70;;;;;;;18.80;54.44;101099.50;5063806;28;20064;-67
2021/06/29 05:50:22;;;;;;;45.83;23.33;;;;;;;19.02;53.67;101090.88;5065654;28;20029;-69
2021/06/29 05:52:48;;;;;;;36.92;22.00;;;;;;;19.36;53.24;101100.81;5065119;28;20033;-69
2021/06/29 05:55:14;;;;;;;40.65;22.58;;;;;;;19.41;53.11;101103.97;5051874;28;20530;-69
2021/06/29 05:57:40;;;;;;;40.15;23.65;;;;;;;19.46;52.77;101104.47;5067700;28;20032;-68
2021/06/29 06:00:11;;;;;;;43.05;22.30;;;;;;;19.53;52.47;101103.06;5064562;28;20036;-67
2021/06/29 06:02:41;;;;;;;38.88;19.63;;;;;;;19.54;52.35;101110.03;5064521;28;20039;-68
2021/06/29 06:05:08;;;;;;;40.80;22.00;;;;;;;19.40;52.49;101108.41;5047224;28;20393;-68
2021/06/29 06:07:34;;;;;;;54.72;23.15;;;;;;;19.49;52.25;101102.44;5065386;28;20028;-69
2021/06/29 06:09:59;;;;;;;36.65;19.65;;;;;;;19.55;53.08;101105.56;5062262;28;20060;-69
2021/06/29 06:12:26;;;;;;;52.25;23.25;;;;;;;19.69;52.10;101102.78;5063715;28;20044;-68
2021/06/29 06:14:52;;;;;;;46.28;22.77;;;;;;;19.35;52.77;101109.72;5065873;28;20044;-68
2021/06/29 06:17:17;;;;;;;39.85;22.38;;;;;;;19.53;53.12;101105.72;5064361;28;20032;-68
2021/06/29 06:19:43;;;;;;;45.40;22.95;;;;;;;19.54;52.56;101110.03;5064676;28;20033;-68
2021/06/29 06:22:09;;;;;;;39.13;21.27;;;;;;;19.67;52.69;101115.31;5062774;28;20031;-68
2021/06/29 06:24:35;;;;;;;40.08;20.77;;;;;;;19.67;52.36;101118.81;5065262;28;20047;-69
2021/06/29 06:27:00;;;;;;;40.08;21.60;;;;;;;19.70;52.41;101115.94;5046693;28;20060;-67
2021/06/29 06:29:26;;;;;;;47.53;24.20;;;;;;;19.62;52.03;101117.47;5063719;28;20146;-68
2021/06/29 06:31:51;;;;;;;49.38;26.00;;;;;;;19.35;53.09;101115.88;5065302;28;20401;-69
2021/06/29 06:34:17;;;;;;;42.67;23.30;;;;;;;19.55;53.11;101111.78;5046982;28;20090;-68
2021/06/29 06:36:42;;;;;;;46.97;25.30;;;;;;;19.45;53.03;101121.34;5069727;28;20048;-68
2021/06/29 06:39:07;;;;;;;59.33;27.73;;;;;;;19.34;53.19;101114.16;5047131;28;20108;-68
2021/06/29 06:41:33;;;;;;;48.20;23.25;;;;;;;19.46;53.65;101118.56;5064167;28;20032;-68
2021/06/29 06:43:58;;;;;;;51.55;24.98;;;;;;;19.55;52.97;101109.13;5060361;28;20681;-68
2021/06/29 06:46:24;;;;;;;52.92;25.13;;;;;;;19.68;52.88;101107.25;5065857;28;20040;-68
2021/06/29 06:48:49;;;;;;;46.65;23.00;;;;;;;19.81;53.15;101116.91;5064974;28;20496;-68
2021/06/29 06:51:16;;;;;;;52.80;23.60;;;;;;;19.84;52.51;101114.06;5064560;28;20028;-69
2021/06/29 06:53:42;;;;;;;50.80;24.63;;;;;;;19.74;52.58;101111.22;5061776;28;20040;-68
2021/06/29 06:56:14;;;;;;;48.83;21.58;;;;;;;19.97;52.71;101109.50;5064160;28;20039;-68
2021/06/29 06:58:43;;;;;;;56.72;23.85;;;;;;;19.94;51.82;101117.69;5062457;28;23016;-67
2021/06/29 07:01:10;;;;;;;54.38;24.13;;;;;;;19.96;51.93;101107.78;5063255;28;20070;-68
2021/06/29 07:03:37;;;;;;;54.55;23.85;;;;;;;19.86;51.50;101114.75;5062958;28;20059;-69
2021/06/29 07:06:03;;;;;;;48.38;22.75;;;;;;;19.88;51.95;101110.19;5064522;28;20036;-68
2021/06/29 07:08:29;;;;;;;45.35;23.48;;;;;;;19.85;52.19;101107.78;5067431;28;20032;-68
2021/06/29 07:10:57;;;;;;;51.53;22.52;;;;;;;19.92;51.91;101116.94;5065490;28;20109;-68
2021/06/29 07:13:22;;;;;;;51.10;22.80;;;;;;;19.88;52.08;101113.69;5066095;28;20044;-68
2021/06/29 07:15:48;;;;;;;41.47;20.08;;;;;;;19.88;52.26;101108.41;5063249;28;20048;-69
2021/06/29 07:18:17;;;;;;;51.47;24.20;;;;;;;19.79;52.36;101108.22;5064579;28;20086;-68
2021/06/29 07:20:44;;;;;;;47.20;21.92;;;;;;;19.84;52.25;101108.75;5064552;28;20040;-68
2021/06/29 07:23:11;;;;;;;49.40;22.17;;;;;;;19.87;52.30;101105.84;5064736;28;20029;-68
2021/06/29 07:25:37;;;;;;;48.00;22.98;;;;;;;19.95;52.41;101098.16;5061528;28;20033;-67
2021/06/29 07:28:03;;;;;;;52.38;25.23;;;;;;;20.09;52.19;101097.09;5065495;28;20107;-68
2021/06/29 07:30:29;;;;;;;44.55;18.85;;;;;;;20.29;52.39;101099.06;5045797;28;20029;-68
2021/06/29 07:32:58;;;;;;;52.70;23.45;;;;;;;20.38;51.84;101096.69;5059759;28;20063;-68
2021/06/29 07:35:24;;;;;;;42.83;22.65;;;;;;;20.42;51.80;101092.81;5049110;28;20447;-68
2021/06/29 07:37:50;;;;;;;47.65;20.63;;;;;;;20.59;51.17;101086.16;5063646;28;20477;-68
2021/06/29 07:40:16;;;;;;;44.47;21.20;;;;;;;20.44;51.26;101085.56;5045665;28;20052;-69
2021/06/29 07:42:42;;;;;;;51.47;22.13;;;;;;;20.48;51.20;101090.50;5059807;28;20442;-68
2021/06/29 07:45:08;;;;;;;42.58;22.70;;;;;;;20.47;50.66;101094.13;5063945;28;20098;-68
2021/06/29 07:47:34;;;;;;;45.28;22.67;;;;;;;20.33;50.67;101086.44;5062662;28;20040;-70
2021/06/29 07:50:00;;;;;;;46.75;22.15;;;;;;;20.27;51.53;101087.72;5064073;28;20029;-69
2021/06/29 07:52:26;;;;;;;38.53;20.45;;;;;;;20.42;51.02;101095.47;5066723;28;20123;-68
2021/06/29 07:54:51;;;;;;;45.05;20.63;;;;;;;20.29;51.09;101085.81;5062602;28;20044;-68
2021/06/29 07:57:17;;;;;;;48.13;22.40;;;;;;;20.33;51.59;101081.13;5061953;28;20032;-68
2021/06/29 07:59:43;;;;;;;43.13;21.15;;;;;;;20.28;51.79;101080.59;5065236;28;20421;-68
2021/06/29 08:02:08;;;;;;;50.80;20.73;;;;;;;20.36;51.18;101074.72;5061701;28;20037;-68
2021/06/29 08:04:36;;;;;;;38.22;19.05;;;;;;;20.49;51.81;101075.44;5062120;28;20054;-71
2021/06/29 08:07:02;;;;;;;40.78;20.73;;;;;;;20.51;51.43;101079.66;5062237;28;20062;-68
2021/06/29 08:09:27;;;;;;;37.72;19.98;;;;;;;20.36;51.28;101082.69;5045176;28;20063;-68
2021/06/29 08:11:53;;;;;;;44.15;21.25;;;;;;;20.52;51.18;101080.50;5044297;28;20036;-68
2021/06/29 08:14:18;;;;;;;41.15;20.13;;;;;;;20.56;51.28;101083.75;5060516;28;20040;-68
2021/06/29 08:16:45;;;;;;;46.80;23.55;;;;;;;20.56;50.61;101081.09;5062115;28;20440;-69
2021/06/29 08:19:11;;;;;;;49.40;23.83;;;;;;;20.33;51.62;101081.13;5064418;28;20056;-69
2021/06/29 08:21:37;;;;;;;44.35;21.58;;;;;;;20.47;51.55;101088.00;5067604;28;20067;-68
2021/06/29 08:24:03;;;;;;;46.33;22.88;;;;;;;20.58;50.91;101085.31;5058444;28;20072;-68
2021/06/29 08:26:29;;;;;;;42.80;21.27;;;;;;;20.42;51.59;101091.00;5045108;28;20059;-68
2021/06/29 08:28:54;;;;;;;37.67;20.50;;;;;;;20.65;51.74;101083.03;5050885;28;20580;-71
2021/06/29 08:31:21;;;;;;;30.08;16.58;;;;;;;20.95;51.31;101082.38;5059424;28;20040;-67
2021/06/29 08:33:48;;;;;;;45.70;23.50;;;;;;;21.21;49.65;101074.13;5056798;28;20762;-69
2021/06/29 08:36:16;;;;;;;39.17;19.33;;;;;;;21.33;49.64;101079.28;5047038;28;20052;-68
2021/06/29 08:38:42;;;;;;;41.58;20.73;;;;;;;21.54;48.98;101075.81;5064621;28;20527;-68
2021/06/29 08:41:07;;;;;;;40.63;22.73;;;;;;;21.71;49.31;101074.38;5069661;28;20029;-69
2021/06/29 08:43:33;;;;;;;35.63;20.05;;;;;;;22.02;48.81;101074.44;5067788;28;20040;-69
2021/06/29 08:45:58;;;;;;;33.47;19.67;;;;;;;21.93;47.59;101074.25;5069720;28;20040;-71
2021/06/29 08:48:24;;;;;;;38.28;22.45;;;;;;;22.03;47.63;101065.50;5061835;28;20211;-69
2021/06/29 08:50:49;;;;;;;32.15;20.13;;;;;;;21.75;48.50;101076.66;5064786;28;20576;-70
2021/06/29 08:53:16;;;;;;;33.03;20.08;;;;;;;21.77;49.31;101066.72;5058157;28;20070;-68
2021/06/29 08:55:44;;;;;;;39.55;21.98;;;;;;;21.67;48.89;101067.66;5075295;28;20037;-69
2021/06/29 08:58:10;;;;;;;37.97;22.05;;;;;;;21.54;48.65;101067.84;5041027;28;20052;-70
2021/06/29 09:00:37;;;;;;;52.35;27.65;;;;;;;21.42;49.56;101063.50;5054525;28;20092;-69
2021/06/29 09:03:04;;;;;;;44.53;23.65;;;;;;;21.23;49.87;101075.66;5053811;28;20028;-68
2021/06/29 09:05:30;;;;;;;38.33;22.05;;;;;;;21.14;50.32;101073.78;5057807;28;20032;-69
2021/06/29 09:08:07;;;;;;;42.40;23.80;;;;;;;21.06;51.17;101071.72;5060916;28;20135;-70
2021/06/29 09:10:34;;;;;;;44.15;23.33;;;;;;;21.03;51.52;101068.50;5060487;28;20713;-69
2021/06/29 09:13:00;;;;;;;35.35;20.88;;;;;;;21.08;51.26;101076.94;5058982;28;20377;-70
2021/06/29 09:15:40;;;;;;;46.60;25.65;;;;;;;21.09;51.04;101074.16;5059102;28;20032;-70
2021/06/29 09:18:05;;;;;;;41.55;25.08;;;;;;;21.07;51.11;101064.63;5077679;28;20046;-68
2021/06/29 09:20:44;;;;;;;46.40;25.95;;;;;;;21.08;50.74;101066.28;5061983;28;20037;-69
2021/06/29 09:23:12;;;;;;;39.78;25.05;;;;;;;21.04;50.88;101071.03;5062140;28;20036;-68
2021/06/29 09:25:40;;;;;;;48.55;26.60;;;;;;;21.03;51.69;101079.97;5061613;28;20043;-69
2021/06/29 09:28:06;;;;;;;36.30;23.23;;;;;;;21.04;51.58;101072.81;5061507;28;20734;-67
2021/06/29 09:30:42;;;;;;;37.47;24.80;;;;;;;21.28;51.10;101073.47;5057750;28;20028;-67
2021/06/29 09:33:09;;;;;;;48.92;26.00;;;;;;;21.31;50.72;101072.38;5043999;28;20522;-67
2021/06/29 09:35:36;;;;;;;40.28;24.20;;;;;;;21.24;50.60;101080.00;5059252;28;20738;-67
2021/06/29 09:38:03;;;;;;;41.17;22.52;;;;;;;21.33;51.26;101076.63;5058906;28;20032;-70
2021/06/29 09:40:30;;;;;;;40.60;25.30;;;;;;;21.65;50.86;101074.94;5060344;28;20072;-68
2021/06/29 09:43:16;;;;;;;39.63;24.30;;;;;;;21.85;49.69;101075.91;5058788;28;20032;-67
2021/06/29 09:45:48;;;;;;;41.50;24.60;;;;;;;21.71;49.40;101077.91;5059874;28;20036;-70
2021/06/29 09:48:15;;;;;;;35.20;22.45;;;;;;;21.85;50.05;101083.88;5060465;28;20152;-69
2021/06/29 09:50:50;;;;;;;46.53;25.50;;;;;;;22.16;49.25;101082.97;5041804;28;20028;-67
2021/06/29 09:53:30;;;;;;;38.67;22.85;;;;;;;22.40;49.44;101081.78;5019020;28;1118483;-72
2021/06/29 09:56:00;;;;;;;40.63;26.63;;;;;;;22.61;49.05;101076.41;5059849;28;20028;-69
2021/06/29 09:58:28;;;;;;;40.67;24.58;;;;;;;22.78;48.66;101074.94;5064207;28;20032;-71
2021/06/29 10:00:58;;;;;;;40.70;25.70;;;;;;;22.95;47.39;101070.78;5060992;28;20131;-68
2021/06/29 10:03:33;;;;;;;40.90;24.92;;;;;;;22.96;48.19;101065.31;5061073;28;20761;-69
2021/06/29 10:06:01;;;;;;;42.15;26.10;;;;;;;23.13;47.87;101070.94;5060550;28;20525;-70
2021/06/29 10:08:35;;;;;;;38.03;24.48;;;;;;;23.45;45.98;101068.00;5059995;28;20101;-68
2021/06/29 10:11:15;;;;;;;40.75;25.13;;;;;;;23.51;45.90;101066.59;5058876;28;20039;-70
2021/06/29 10:13:49;;;;;;;39.20;27.15;;;;;;;23.65;46.24;101066.16;5043346;28;20032;-68
2021/06/29 10:16:18;;;;;;;35.15;22.52;;;;;;;23.93;46.67;101060.94;5061065;28;20036;-72
2021/06/29 10:18:49;;;;;;;35.78;25.92;;;;;;;24.16;43.28;101061.44;5061729;28;20090;-67
2021/06/29 10:21:25;;;;;;;40.63;26.42;;;;;;;24.26;44.42;101064.03;5061132;28;20521;-71
2021/06/29 10:23:53;;;;;;;43.20;28.63;;;;;;;24.33;44.32;101067.84;5060152;28;20089;-69
2021/06/29 10:26:20;;;;;;;38.65;25.05;;;;;;;24.02;43.95;101068.91;5060839;28;20043;-69
2021/06/29 10:28:47;;;;;;;31.33;24.05;;;;;;;24.19;44.43;101070.00;5055112;28;20652;-68
2021/06/29 10:31:22;;;;;;;34.60;23.95;;;;;;;24.19;44.45;101071.81;5058634;28;20029;-68
2021/06/29 10:33:49;;;;;;;39.42;25.85;;;;;;;24.12;44.09;101076.88;5042070;28;20123;-69
2021/06/29 10:36:16;;;;;;;40.90;27.17;;;;;;;23.94;45.03;101073.28;5060635;28;20120;-71
2021/06/29 10:38:42;;;;;;;37.78;26.13;;;;;;;23.69;45.51;101070.22;5057617;28;20041;-69
2021/06/29 10:41:09;;;;;;;38.85;27.00;;;;;;;23.53;45.16;101075.31;5060678;28;20120;-67
2021/06/29 10:43:37;;;;;;;34.45;24.85;;;;;;;23.52;46.24;101073.63;5060747;28;20040;-68
2021/06/29 10:46:03;;;;;;;37.78;26.15;;;;;;;23.59;45.73;101064.09;5059973;28;20371;-67
2021/06/29 10:48:30;;;;;;;36.03;27.20;;;;;;;23.56;45.96;101059.00;5069450;28;20032;-70
2021/06/29 10:50:59;;;;;;;39.63;26.48;;;;;;;23.55;46.13;101057.34;5072291;28;20478;-71
2021/06/29 10:53:45;;;;;;;38.28;25.67;;;;;;;23.54;46.49;101052.97;5073832;28;20047;-67
2021/06/29 10:56:17;;;;;;;35.78;27.00;;;;;;;23.49;46.81;101055.22;5073586;28;20028;-68
2021/06/29 10:58:50;;;;;;;;;;;;;;;23.51;46.41;101045.28;5061037;28;20571;-67
2021/06/29 11:01:35;;;;;;;37.53;26.35;;;;;;;23.40;45.68;101038.25;5058831;28;20832;-68
2021/06/29 11:04:04;;;;;;;37.20;27.65;;;;;;;23.35;45.59;101030.69;5059287;28;20943;-67
2021/06/29 11:06:46;;;;;;;45.97;29.13;;;;;;;23.66;46.01;101033.16;5060804;28;20047;-70
2021/06/29 11:09:15;;;;;;;39.30;27.13;;;;;;;23.73;46.96;101012.91;5059257;28;20123;-68
2021/06/29 11:11:41;;;;;;;34.22;24.55;;;;;;;23.59;45.92;101027.56;5060703;28;20048;-68
2021/06/29 11:14:28;;;;;;;38.13;27.95;;;;;;;23.34;46.53;101026.34;5056670;28;20117;-67